Time;durP1;ratioP1;P1;durP2;ratioP2;P2;SDS_P1;SDS_P2;PMS_P1;PMS_P2;Temp;Humidity;BMP_temperature;BMP_pressure;BME280_temperature;BME280_humidity;BME280_pressure;Samples;Min_cycle;Max_cycle;Signal;HPM_P1;HPM_P2
2022/12/07 00:04:46;;;;;;;13.97;8.77;;;;;4.00;101352.00;;;;9766459;30;20225;-78
2022/12/07 00:09:48;;;;;;;16.90;9.23;;;;;3.80;101345.00;;;;9754036;30;20206;-78
2022/12/07 00:14:49;;;;;;;15.67;8.30;;;;;3.70;101355.00;;;;9742452;30;20187;-78
2022/12/07 00:19:51;;;;;;;13.30;8.83;;;;;3.60;101350.00;;;;9775284;30;20206;-78
2022/12/07 00:24:53;;;;;;;15.47;9.57;;;;;3.50;101345.00;;;;9754714;30;20289;-78
2022/12/07 00:29:55;;;;;;;17.97;9.90;;;;;3.50;101347.00;;;;9754340;30;20254;-79
2022/12/07 00:34:57;;;;;;;18.13;9.40;;;;;3.50;101336.00;;;;9767580;30;20226;-78
2022/12/07 00:39:59;;;;;;;18.07;10.63;;;;;3.40;101342.00;;;;9772482;30;20245;-78
2022/12/07 00:45:01;;;;;;;16.13;10.70;;;;;3.40;101338.00;;;;9739889;30;20206;-78
2022/12/07 00:50:03;;;;;;;17.13;10.50;;;;;3.30;101330.00;;;;9790208;30;20220;-79
2022/12/07 00:55:05;;;;;;;15.60;9.63;;;;;3.30;101331.00;;;;9760970;30;20209;-78
2022/12/07 01:00:08;;;;;;;20.87;10.13;;;;;3.20;101323.00;;;;9766999;30;20203;-78
2022/12/07 01:05:09;;;;;;;19.37;10.77;;;;;3.10;101321.00;;;;9765245;30;20288;-79
2022/12/07 01:10:12;;;;;;;16.07;9.83;;;;;3.10;101322.00;;;;9758876;30;20210;-78
2022/12/07 01:15:14;;;;;;;17.77;10.53;;;;;3.00;101328.00;;;;9772526;30;20206;-78
2022/12/07 01:20:16;;;;;;;15.93;10.10;;;;;2.90;101316.00;;;;9773141;30;20205;-78
2022/12/07 01:25:18;;;;;;;17.60;9.17;;;;;2.90;101315.00;;;;9744930;30;20206;-78
2022/12/07 01:30:20;;;;;;;17.30;11.23;;;;;3.00;101330.00;;;;9764798;30;20222;-78
2022/12/07 01:35:23;;;;;;;16.03;10.47;;;;;3.10;101336.00;;;;9736646;30;20205;-79
2022/12/07 01:40:25;;;;;;;15.67;10.60;;;;;3.10;101321.00;;;;9774632;30;20702;-78
2022/12/07 01:45:30;;;;;;;19.23;10.83;;;;;3.10;101345.00;;;;9787667;30;20629;-79
2022/12/07 01:50:33;;;;;;;19.77;10.67;;;;;3.30;101341.00;;;;9772719;30;20313;-78
2022/12/07 01:55:38;;;;;;;18.70;11.53;;;;;3.40;101339.00;;;;9772808;30;20215;-78
2022/12/07 02:00:41;;;;;;;19.07;11.17;;;;;3.50;101329.00;;;;9772049;30;20209;-77
2022/12/07 02:05:44;;;;;;;20.47;11.63;;;;;3.60;101330.00;;;;9743546;30;20233;-77
2022/12/07 02:10:46;;;;;;;15.73;11.57;;;;;3.60;101330.00;;;;9741081;30;20269;-77
2022/12/07 02:16:18;;;;;;;17.60;10.37;;;;;3.60;101323.00;;;;9724640;30;20265;-77
2022/12/07 02:22:02;;;;;;;19.10;11.20;;;;;3.50;101316.00;;;;9774837;30;20228;-77
2022/12/07 02:27:13;;;;;;;18.07;10.67;;;;;3.50;101322.00;;;;9770121;30;20265;-77
2022/12/07 02:32:27;;;;;;;15.87;9.93;;;;;3.60;101321.00;;;;9740783;30;20213;-77
2022/12/07 02:37:44;;;;;;;16.40;10.20;;;;;3.60;101318.00;;;;9751162;30;20670;-77
2022/12/07 02:42:52;;;;;;;15.30;9.17;;;;;3.60;101312.00;;;;9740523;30;20570;-77
2022/12/07 02:47:58;;;;;;;17.27;9.53;;;;;3.40;101312.00;;;;9740678;30;20199;-77
2022/12/07 02:53:00;;;;;;;16.23;10.97;;;;;3.30;101314.00;;;;9758438;30;20209;-77
2022/12/07 02:58:28;;;;;;;16.70;9.60;;;;;3.10;101301.00;;;;9760680;30;20210;-77
2022/12/07 03:03:30;;;;;;;17.17;9.57;;;;;3.00;101311.00;;;;9761126;30;20229;-77
2022/12/07 03:08:48;;;;;;;16.63;10.00;;;;;3.00;101312.00;;;;9731143;30;20220;-77
2022/12/07 03:14:04;;;;;;;15.03;9.17;;;;;3.10;101321.00;;;;9740452;30;20205;-77
2022/12/07 03:19:14;;;;;;;15.30;9.47;;;;;3.20;101309.00;;;;9768237;30;20202;-77
2022/12/07 03:24:26;;;;;;;17.43;10.40;;;;;3.40;101318.00;;;;9747467;30;20218;-78
2022/12/07 03:29:33;;;;;;;17.23;10.33;;;;;3.50;101312.00;;;;9749278;30;20225;-78
2022/12/07 03:34:46;;;;;;;14.07;9.73;;;;;3.60;101301.00;;;;9757637;30;20202;-78
2022/12/07 03:40:01;;;;;;;14.17;9.53;;;;;3.60;101286.00;;;;9773201;30;20248;-78
2022/12/07 03:45:06;;;;;;;14.50;9.37;;;;;3.40;101293.00;;;;9782922;30;20228;-78
2022/12/07 03:50:15;;;;;;;14.03;9.47;;;;;3.30;101292.00;;;;9733498;30;20210;-78
2022/12/07 03:55:27;;;;;;;15.67;9.80;;;;;3.20;101295.00;;;;9762155;30;20260;-77
2022/12/07 04:00:29;;;;;;;15.97;9.33;;;;;3.10;101286.00;;;;9753120;30;20202;-77
2022/12/07 04:05:31;;;;;;;15.07;9.30;;;;;3.00;101285.00;;;;9737072;30;20201;-77
2022/12/07 04:10:33;;;;;;;12.47;9.37;;;;;2.90;101287.00;;;;9738047;30;20210;-77
2022/12/07 04:15:35;;;;;;;12.17;8.90;;;;;2.80;101294.00;;;;9755409;30;20853;-77
2022/12/07 04:20:37;;;;;;;14.23;9.00;;;;;2.70;101281.00;;;;9778732;30;20206;-77
2022/12/07 04:25:40;;;;;;;11.73;7.97;;;;;2.60;101282.00;;;;9784501;30;20264;-77
2022/12/07 04:30:42;;;;;;;11.53;7.97;;;;;2.40;101289.00;;;;9735252;30;20711;-77
2022/12/07 04:35:44;;;;;;;13.07;8.53;;;;;2.40;101302.00;;;;9749636;30;20202;-77
2022/12/07 04:40:45;;;;;;;13.10;8.50;;;;;2.20;101296.00;;;;9779461;30;20210;-77
2022/12/07 04:45:48;;;;;;;13.60;9.03;;;;;2.20;101285.00;;;;9770725;30;20194;-77
2022/12/07 04:50:50;;;;;;;12.27;8.10;;;;;2.30;101292.00;;;;9774311;30;20724;-77
2022/12/07 04:55:52;;;;;;;13.87;9.00;;;;;2.40;101278.00;;;;9715726;30;20227;-77
2022/12/07 05:00:55;;;;;;;18.80;10.20;;;;;2.60;101287.00;;;;9750472;30;20227;-77
2022/12/07 05:05:57;;;;;;;16.47;9.27;;;;;2.70;101285.00;;;;9763058;30;20202;-77
2022/12/07 05:11:00;;;;;;;13.40;8.67;;;;;2.70;101287.00;;;;9752907;30;20252;-77
2022/12/07 05:16:02;;;;;;;15.03;9.13;;;;;2.60;101280.00;;;;9750893;30;20248;-77
2022/12/07 05:21:04;;;;;;;14.33;9.43;;;;;2.70;101274.00;;;;9764982;30;20217;-77
2022/12/07 05:26:06;;;;;;;15.73;10.13;;;;;2.80;101289.00;;;;9743764;30;20210;-77
2022/12/07 05:31:08;;;;;;;14.53;9.53;;;;;2.90;101292.00;;;;9751552;30;20321;-77
2022/12/07 05:36:10;;;;;;;16.27;9.13;;;;;2.90;101286.00;;;;9743124;30;20241;-77
2022/12/07 05:46:35;;;;;;;14.43;9.40;;;;;3.10;101282.00;;;;9731028;30;20206;-77
2022/12/07 05:51:37;;;;;;;16.17;10.37;;;;;3.20;101278.00;;;;9757470;30;20207;-77
2022/12/07 05:56:39;;;;;;;15.20;9.83;;;;;3.20;101282.00;;;;9747540;30;20221;-77
2022/12/07 06:01:42;;;;;;;13.60;9.87;;;;;3.20;101279.00;;;;9750338;30;20238;-77
2022/12/07 06:06:44;;;;;;;15.97;9.90;;;;;3.30;101275.00;;;;9744012;30;20293;-78
2022/12/07 06:17:07;;;;;;;15.10;9.57;;;;;3.40;101271.00;;;;9740949;30;20205;-77
2022/12/07 06:22:11;;;;;;;13.63;9.30;;;;;3.40;101261.00;;;;9764456;30;20265;-77
2022/12/07 06:27:13;;;;;;;13.13;8.40;;;;;3.40;101262.00;;;;9772726;30;20265;-77
2022/12/07 06:32:15;;;;;;;12.93;9.50;;;;;3.50;101252.00;;;;9742782;30;20209;-77
2022/12/07 06:37:17;;;;;;;14.00;9.40;;;;;3.40;101260.00;;;;9763583;30;20206;-77
2022/12/07 06:42:19;;;;;;;15.40;8.97;;;;;3.40;101271.00;;;;9722704;30;20214;-78
2022/12/07 06:47:21;;;;;;;17.60;9.00;;;;;3.40;101283.00;;;;9735198;30;20204;-77
2022/12/07 06:52:41;;;;;;;12.13;9.13;;;;;3.40;101281.00;;;;9749858;30;20203;-77
2022/12/07 06:57:44;;;;;;;14.10;9.43;;;;;3.40;101282.00;;;;9748392;30;20218;-77
2022/12/07 07:02:46;;;;;;;19.37;9.60;;;;;3.50;101292.00;;;;9766898;30;20279;-77
2022/12/07 07:07:49;;;;;;;17.83;9.57;;;;;3.50;101294.00;;;;9757974;30;20202;-78
2022/12/07 07:13:11;;;;;;;12.43;8.60;;;;;3.60;101302.00;;;;9766342;30;20663;-78
2022/12/07 07:18:12;;;;;;;23.07;9.90;;;;;3.60;101301.00;;;;9764575;30;20198;-79
2022/12/07 07:23:14;;;;;;;14.30;9.30;;;;;3.60;101304.00;;;;9777564;30;20221;-78
2022/12/07 07:28:17;;;;;;;18.40;9.10;;;;;3.60;101285.00;;;;9759211;30;20655;-78
2022/12/07 07:33:19;;;;;;;14.20;8.50;;;;;3.60;101279.00;;;;9746766;30;20201;-78
2022/12/07 07:38:21;;;;;;;13.60;8.83;;;;;3.50;101286.00;;;;9742229;30;20257;-78
2022/12/07 07:43:22;;;;;;;13.33;8.40;;;;;3.30;101296.00;;;;9760581;30;20304;-77
2022/12/07 07:48:25;;;;;;;15.57;8.83;;;;;3.20;101293.00;;;;9746738;30;20218;-78
2022/12/07 07:53:26;;;;;;;19.13;10.40;;;;;3.00;101293.00;;;;9742163;30;20209;-78
2022/12/07 07:58:28;;;;;;;17.20;8.60;;;;;2.90;101290.00;;;;9772674;30;20198;-78
2022/12/07 08:03:31;;;;;;;15.90;10.03;;;;;2.90;101293.00;;;;9767236;30;20284;-78
2022/12/07 08:08:33;;;;;;;16.87;8.57;;;;;2.80;101303.00;;;;9736373;30;20206;-78
2022/12/07 08:13:35;;;;;;;14.60;9.23;;;;;2.80;101293.00;;;;9743891;30;20222;-78
2022/12/07 08:18:39;;;;;;;16.60;9.37;;;;;2.80;101302.00;;;;9779509;30;20201;-78
2022/12/07 08:23:41;;;;;;;12.07;7.90;;;;;2.90;101293.00;;;;9750108;30;20258;-78
2022/12/07 08:28:44;;;;;;;18.73;9.27;;;;;3.10;101308.00;;;;9769752;30;20593;-78
2022/12/07 08:33:48;;;;;;;18.27;10.07;;;;;3.20;101312.00;;;;9767251;30;20195;-78
2022/12/07 08:38:50;;;;;;;12.97;9.17;;;;;3.40;101304.00;;;;9732641;30;20206;-78
2022/12/07 08:44:11;;;;;;;17.63;10.33;;;;;3.80;101306.00;;;;9767145;30;20645;-78
2022/12/07 08:49:21;;;;;;;19.03;11.23;;;;;4.40;101301.00;;;;9750380;30;20210;-78
2022/12/07 08:54:24;;;;;;;17.07;10.63;;;;;4.80;101304.00;;;;9747373;30;20207;-78
2022/12/07 08:59:27;;;;;;;16.90;10.87;;;;;4.80;101299.00;;;;9742417;30;20283;-78
2022/12/07 09:04:29;;;;;;;20.07;9.67;;;;;4.80;101305.00;;;;9760284;30;20268;-78
2022/12/07 09:09:31;;;;;;;17.83;9.20;;;;;4.80;101299.00;;;;9768773;30;20233;-78
2022/12/07 09:14:33;;;;;;;18.03;10.53;;;;;5.00;101310.00;;;;9783318;30;20198;-78
2022/12/07 09:19:35;;;;;;;24.03;11.80;;;;;5.50;101306.00;;;;9764652;30;20220;-78
2022/12/07 09:24:37;;;;;;;25.90;10.20;;;;;5.60;101306.00;;;;9739289;30;20378;-78
2022/12/07 09:29:39;;;;;;;17.33;10.03;;;;;5.50;101306.00;;;;9756103;30;20245;-78
2022/12/07 09:34:41;;;;;;;16.87;8.97;;;;;5.40;101307.00;;;;9798043;30;20602;-78
2022/12/07 09:39:44;;;;;;;14.47;8.60;;;;;5.40;101313.00;;;;9768017;30;20307;-78
2022/12/07 09:44:51;;;;;;;15.03;8.77;;;;;5.60;101305.00;;;;9747093;30;20301;-78
2022/12/07 09:49:59;;;;;;;13.17;7.77;;;;;5.70;101302.00;;;;9733948;30;20662;-78
2022/12/07 09:55:02;;;;;;;10.57;7.87;;;;;5.90;101294.00;;;;9769643;30;20197;-78
2022/12/07 10:00:27;;;;;;;13.13;8.33;;;;;5.90;101285.00;;;;9757155;30;20210;-78
2022/12/07 10:05:39;;;;;;;12.90;8.50;;;;;5.90;101277.00;;;;9737561;30;20280;-77
2022/12/07 10:10:42;;;;;;;15.10;8.17;;;;;5.90;101271.00;;;;9738413;30;20712;-77
2022/12/07 10:15:53;;;;;;;20.57;10.50;;;;;6.40;101269.00;;;;9729263;30;20606;-77
2022/12/07 10:21:07;;;;;;;21.00;13.97;;;;;7.00;101259.00;;;;9750428;30;20206;-77
2022/12/07 10:26:40;;;;;;;15.73;10.47;;;;;6.60;101263.00;;;;9739291;30;20236;-78
2022/12/07 10:31:42;;;;;;;13.33;8.27;;;;;6.40;101262.00;;;;9746593;30;20252;-78
2022/12/07 10:36:44;;;;;;;15.27;11.40;;;;;6.90;101264.00;;;;9738124;30;20212;-78
2022/12/07 10:41:55;;;;;;;12.07;8.90;;;;;7.10;101266.00;;;;9719035;30;20222;-78
2022/12/07 10:47:11;;;;;;;12.73;7.90;;;;;7.20;101255.00;;;;9757285;30;20237;-78
2022/12/07 10:52:36;;;;;;;10.97;7.10;;;;;7.20;101260.00;;;;9745798;30;20193;-78
2022/12/07 10:58:11;;;;;;;13.10;7.77;;;;;7.10;101263.00;;;;9705963;30;20221;-78
2022/12/07 11:03:32;;;;;;;10.90;7.10;;;;;7.20;101256.00;;;;9744067;30;20211;-78
2022/12/07 11:08:43;;;;;;;11.57;6.87;;;;;7.50;101248.00;;;;9746668;30;20210;-78
2022/12/07 11:14:09;;;;;;;14.20;7.87;;;;;8.00;101232.00;;;;9750904;30;20650;-77
2022/12/07 11:19:50;;;;;;;15.10;7.57;;;;;8.50;101225.00;;;;9747396;30;20202;-78
2022/12/07 11:25:02;;;;;;;12.50;6.33;;;;;8.20;101212.00;;;;9734914;30;20230;-77
2022/12/07 11:30:15;;;;;;;12.37;6.43;;;;;7.60;101212.00;;;;9739739;30;20304;-77
2022/12/07 11:35:47;;;;;;;11.07;6.50;;;;;7.40;101222.00;;;;9760459;30;20585;-77
2022/12/07 11:40:51;;;;;;;12.53;7.57;;;;;7.80;101219.00;;;;9724553;30;20722;-77
2022/12/07 11:46:03;;;;;;;10.20;6.53;;;;;8.00;101204.00;;;;9779017;30;20781;-77
2022/12/07 11:51:09;;;;;;;7.47;4.40;;;;;7.80;101205.00;;;;9765974;30;20270;-77
2022/12/07 11:56:17;;;;;;;8.23;4.90;;;;;8.60;101198.00;;;;9783289;30;20253;-78
2022/12/07 12:01:38;;;;;;;8.57;5.23;;;;;9.20;101187.00;;;;9747225;30;20662;-77
2022/12/07 12:06:44;;;;;;;7.03;4.50;;;;;9.20;101185.00;;;;9748598;30;20201;-77
2022/12/07 12:12:15;;;;;;;9.17;4.00;;;;;8.80;101175.00;;;;9722853;30;20676;-77
2022/12/07 12:17:59;;;;;;;9.20;4.60;;;;;9.30;101167.00;;;;9749674;30;20186;-77
2022/12/07 12:23:12;;;;;;;8.40;4.67;;;;;8.80;101163.00;;;;9746987;30;20792;-77
2022/12/07 12:28:40;;;;;;;11.00;4.37;;;;;9.10;101162.00;;;;9742940;30;20615;-77
2022/12/07 12:33:53;;;;;;;9.20;5.27;;;;;9.40;101154.00;;;;9760472;30;20586;-77
2022/12/07 12:38:58;;;;;;;7.07;4.67;;;;;9.40;101156.00;;;;9754267;30;20195;-77
2022/12/07 12:44:01;;;;;;;9.20;4.00;;;;;9.30;101142.00;;;;9740141;30;20291;-77
2022/12/07 12:49:21;;;;;;;8.83;3.57;;;;;9.60;101143.00;;;;9726042;30;20237;-77
2022/12/07 12:54:28;;;;;;;7.67;2.83;;;;;9.70;101142.00;;;;9739994;30;20202;-76
2022/12/07 12:59:31;;;;;;;4.60;2.37;;;;;9.70;101143.00;;;;9729714;30;20209;-76
2022/12/07 13:04:48;;;;;;;4.03;1.80;;;;;9.20;101146.00;;;;9762010;30;20250;-77
2022/12/07 13:09:50;;;;;;;5.37;2.47;;;;;8.80;101145.00;;;;9758139;30;20227;-77
2022/12/07 13:14:58;;;;;;;4.30;1.87;;;;;8.50;101136.00;;;;9731526;30;20561;-77
2022/12/07 13:20:01;;;;;;;4.83;2.23;;;;;8.30;101132.00;;;;9741711;30;20206;-77
2022/12/07 13:25:31;;;;;;;2.97;1.53;;;;;8.00;101116.00;;;;9761548;30;20581;-77
2022/12/07 13:30:44;;;;;;;5.23;2.03;;;;;8.10;101121.00;;;;9754076;30;20235;-77
2022/12/07 13:35:47;;;;;;;4.90;1.80;;;;;8.30;101118.00;;;;9752422;30;20264;-75
2022/12/07 13:41:03;;;;;;;3.97;1.67;;;;;8.30;101103.00;;;;9748245;30;20206;-77
2022/12/07 13:46:08;;;;;;;8.80;1.47;;;;;8.30;101095.00;;;;9716908;30;20225;-77
2022/12/07 13:51:21;;;;;;;4.43;1.40;;;;;8.20;101088.00;;;;9770691;30;20205;-77
2022/12/07 13:56:31;;;;;;;2.20;1.50;;;;;7.80;101093.00;;;;9732455;30;20194;-77
2022/12/07 14:01:33;;;;;;;5.00;1.60;;;;;7.40;101091.00;;;;9737618;30;20579;-77
2022/12/07 14:06:35;;;;;;;3.03;1.67;;;;;7.10;101090.00;;;;9747234;30;20218;-76
2022/12/07 14:11:37;;;;;;;8.70;2.67;;;;;6.80;101102.00;;;;9716578;30;20202;-76
2022/12/07 14:16:40;;;;;;;3.87;1.77;;;;;6.60;101094.00;;;;9771512;30;20201;-77
2022/12/07 14:21:42;;;;;;;1.90;1.60;;;;;6.00;101093.00;;;;9743855;30;20236;-77
2022/12/07 14:26:49;;;;;;;4.33;2.80;;;;;5.80;101102.00;;;;9749113;30;20210;-76
2022/12/07 14:31:52;;;;;;;7.47;3.57;;;;;5.70;101105.00;;;;9739282;30;20257;-77
2022/12/07 14:36:54;;;;;;;2.50;2.30;;;;;5.70;101094.00;;;;9744165;30;20206;-76
2022/12/07 14:41:56;;;;;;;2.93;2.73;;;;;5.70;101096.00;;;;9753448;30;20662;-76
2022/12/07 14:46:58;;;;;;;3.50;2.60;;;;;5.70;101085.00;;;;9733898;30;20224;-76
2022/12/07 14:52:24;;;;;;;3.83;2.83;;;;;5.80;101080.00;;;;9751091;30;20201;-76
2022/12/07 14:57:46;;;;;;;3.63;2.47;;;;;5.70;101065.00;;;;9727873;30;20295;-76
2022/12/07 15:02:49;;;;;;;5.97;2.33;;;;;5.50;101066.00;;;;9744022;30;20206;-76
2022/12/07 15:07:51;;;;;;;5.67;2.60;;;;;5.40;101068.00;;;;9728936;30;20209;-76
2022/12/07 15:12:53;;;;;;;3.03;2.33;;;;;5.40;101065.00;;;;9732373;30;20195;-76
2022/12/07 15:17:56;;;;;;;4.53;3.10;;;;;5.30;101058.00;;;;9714406;30;20257;-76
2022/12/07 15:22:58;;;;;;;4.27;3.00;;;;;5.20;101050.00;;;;9749904;30;20226;-76
2022/12/07 15:28:00;;;;;;;5.33;2.90;;;;;5.20;101043.00;;;;9749151;30;20245;-76
2022/12/07 15:33:02;;;;;;;9.07;3.20;;;;;5.20;101050.00;;;;9778725;30;20283;-76
2022/12/07 15:38:03;;;;;;;7.33;2.90;;;;;5.20;101045.00;;;;9742344;30;20297;-76
2022/12/07 15:45:03;;;;;;;7.40;3.03;;;;;5.20;101041.00;;;;9737470;30;20219;-76
2022/12/07 15:48:29;;;;;;;7.30;3.10;;;;;5.10;101038.00;;;;9757745;30;20234;-76
2022/12/07 15:53:32;;;;;;;5.37;3.00;;;;;5.10;101036.00;;;;9751833;30;20202;-76
2022/12/07 15:58:34;;;;;;;6.67;3.13;;;;;5.10;101036.00;;;;9777222;30;20206;-76
2022/12/07 16:03:36;;;;;;;7.70;3.50;;;;;5.10;101033.00;;;;9743032;30;20578;-76
2022/12/07 16:08:43;;;;;;;7.17;3.50;;;;;5.10;101027.00;;;;9742435;30;20277;-76
2022/12/07 16:13:45;;;;;;;10.77;4.57;;;;;5.10;101034.00;;;;9744096;30;20546;-76
2022/12/07 16:18:47;;;;;;;5.07;3.53;;;;;5.00;101024.00;;;;9759494;30;20203;-76
2022/12/07 16:23:49;;;;;;;8.37;3.70;;;;;5.00;101032.00;;;;9740176;30;20682;-76
2022/12/07 16:28:53;;;;;;;7.63;4.47;;;;;5.00;101014.00;;;;9746696;30;20257;-76
2022/12/07 16:33:57;;;;;;;4.70;3.70;;;;;5.10;101012.00;;;;9746306;30;20488;-76
2022/12/07 16:39:00;;;;;;;5.97;4.10;;;;;5.00;101022.00;;;;9735587;30;20216;-76
2022/12/07 16:44:04;;;;;;;8.30;4.00;;;;;5.00;101017.00;;;;9724443;30;20233;-76
2022/12/07 16:49:07;;;;;;;7.53;3.80;;;;;5.00;101024.00;;;;9758793;30;20218;-76
2022/12/07 16:54:12;;;;;;;14.00;5.47;;;;;5.00;101013.00;;;;9744363;30;20194;-76
2022/12/07 16:59:14;;;;;;;10.27;5.07;;;;;5.00;101017.00;;;;9742463;30;20202;-76
2022/12/07 17:04:16;;;;;;;12.27;6.23;;;;;5.00;101007.00;;;;9716894;30;20217;-76
2022/12/07 17:09:18;;;;;;;7.60;4.00;;;;;5.00;101003.00;;;;9734972;30;20229;-76
2022/12/07 17:19:43;;;;;;;6.07;3.90;;;;;4.90;100986.00;;;;9760420;30;20202;-76
2022/12/07 17:24:45;;;;;;;6.37;3.90;;;;;4.70;100989.00;;;;9729973;30;20214;-76
2022/12/07 17:29:47;;;;;;;6.27;3.67;;;;;4.70;100985.00;;;;9723471;30;20278;-78
2022/12/07 17:34:49;;;;;;;7.47;4.10;;;;;4.60;100983.00;;;;9748154;30;20195;-78
2022/12/07 17:39:52;;;;;;;6.90;3.90;;;;;4.70;100982.00;;;;9734121;30;20217;-77
2022/12/07 17:44:53;;;;;;;8.43;4.70;;;;;4.70;100974.00;;;;9707313;30;20225;-77
2022/12/07 17:49:55;;;;;;;6.93;4.27;;;;;4.70;100970.00;;;;9775353;30;20216;-76
2022/12/07 17:55:04;;;;;;;11.03;5.10;;;;;4.70;100963.00;;;;9744789;30;20198;-75
2022/12/07 18:00:08;;;;;;;9.63;5.07;;;;;4.70;100964.00;;;;9725579;30;20572;-76
2022/12/07 18:05:13;;;;;;;8.30;5.00;;;;;4.60;100956.00;;;;9740865;30;20229;-76
2022/12/07 18:10:15;;;;;;;11.40;4.80;;;;;4.50;100953.00;;;;9773689;30;20264;-76
2022/12/07 18:15:18;;;;;;;8.87;5.27;;;;;4.40;100953.00;;;;9773444;30;20204;-76
2022/12/07 18:20:19;;;;;;;9.13;5.13;;;;;4.30;100951.00;;;;9741703;30;20225;-76
2022/12/07 18:25:21;;;;;;;10.30;5.70;;;;;4.20;100960.00;;;;9760350;30;20226;-76
2022/12/07 18:30:23;;;;;;;18.57;6.73;;;;;4.20;100949.00;;;;9760146;30;20237;-76
2022/12/07 18:35:46;;;;;;;13.10;5.63;;;;;4.30;100952.00;;;;9775262;30;20248;-76
2022/12/07 18:40:48;;;;;;;8.93;5.97;;;;;4.30;100950.00;;;;9777751;30;20248;-76
2022/12/07 18:45:50;;;;;;;11.73;6.57;;;;;4.30;100942.00;;;;9763555;30;20229;-76
2022/12/07 18:51:02;;;;;;;13.97;5.97;;;;;4.20;100935.00;;;;9786996;30;20284;-76
2022/12/07 18:56:12;;;;;;;9.47;6.00;;;;;4.10;100928.00;;;;9731538;30;20217;-76
2022/12/07 19:01:14;;;;;;;14.90;7.33;;;;;4.10;100932.00;;;;9765373;30;20209;-76
2022/12/07 19:06:16;;;;;;;9.87;7.23;;;;;4.10;100932.00;;;;9757897;30;20222;-76
2022/12/07 19:16:45;;;;;;;16.83;9.97;;;;;4.30;100921.00;;;;9772376;30;20210;-76
2022/12/07 19:21:47;;;;;;;18.03;9.93;;;;;4.40;100909.00;;;;9761955;30;20232;-75
2022/12/07 19:26:52;;;;;;;13.67;9.47;;;;;4.40;100895.00;;;;9726462;30;20309;-76
2022/12/07 19:31:55;;;;;;;13.03;8.50;;;;;4.40;100900.00;;;;9744752;30;20210;-76
2022/12/07 19:36:57;;;;;;;11.43;8.33;;;;;4.40;100890.00;;;;9770272;30;20194;-76
2022/12/07 19:41:59;;;;;;;10.87;7.80;;;;;4.40;100899.00;;;;9759938;30;20206;-76
2022/12/07 19:47:03;;;;;;;10.17;8.00;;;;;4.40;100889.00;;;;9727387;30;20751;-76
2022/12/07 19:52:07;;;;;;;14.10;8.27;;;;;4.40;100886.00;;;;9720949;30;20202;-76
2022/12/07 19:57:13;;;;;;;14.97;9.33;;;;;4.30;100886.00;;;;9773741;30;20224;-77
2022/12/07 20:02:16;;;;;;;13.93;8.43;;;;;4.30;100884.00;;;;9733042;30;20214;-77
2022/12/07 20:07:18;;;;;;;12.67;8.43;;;;;4.30;100889.00;;;;9754261;30;20310;-77
2022/12/07 20:17:40;;;;;;;13.53;9.27;;;;;4.30;100888.00;;;;9746381;30;20637;-77
2022/12/07 20:22:42;;;;;;;16.17;9.83;;;;;4.30;100888.00;;;;9746431;30;20202;-77
2022/12/07 20:27:44;;;;;;;14.80;9.13;;;;;4.30;100884.00;;;;9745919;30;20236;-77
2022/12/07 20:32:48;;;;;;;17.93;10.43;;;;;4.30;100873.00;;;;9743110;30;20226;-77
2022/12/07 20:37:50;;;;;;;13.97;8.80;;;;;4.30;100871.00;;;;9732736;30;20206;-77
2022/12/07 20:42:52;;;;;;;12.80;8.20;;;;;4.30;100866.00;;;;9750083;30;20198;-76
2022/12/07 20:47:54;;;;;;;15.57;8.53;;;;;4.30;100864.00;;;;9722334;30;20226;-76
2022/12/07 20:52:56;;;;;;;12.33;6.90;;;;;4.20;100870.00;;;;9748809;30;20782;-77
2022/12/07 20:58:01;;;;;;;12.63;7.47;;;;;4.20;100857.00;;;;9729834;30;20589;-77
2022/12/07 21:03:03;;;;;;;11.40;7.33;;;;;4.20;100858.00;;;;9749201;30;20207;-77
2022/12/07 21:08:05;;;;;;;11.63;7.10;;;;;4.20;100857.00;;;;9760218;30;20284;-77
2022/12/07 21:13:07;;;;;;;9.63;7.40;;;;;4.10;100851.00;;;;9751358;30;20210;-77
2022/12/07 21:18:09;;;;;;;9.37;6.43;;;;;4.20;100844.00;;;;9746000;30;20210;-77
2022/12/07 21:23:11;;;;;;;10.50;5.73;;;;;4.20;100853.00;;;;9734838;30;20599;-77
2022/12/07 21:28:13;;;;;;;10.27;6.00;;;;;4.20;100834.00;;;;9753410;30;20309;-77
2022/12/07 21:33:15;;;;;;;7.03;5.57;;;;;4.20;100836.00;;;;9755951;30;20205;-77
2022/12/07 21:38:16;;;;;;;9.77;6.37;;;;;4.20;100829.00;;;;9711545;30;20206;-77
2022/12/07 21:43:18;;;;;;;11.37;5.80;;;;;4.10;100816.00;;;;9722904;30;20209;-77
2022/12/07 21:48:20;;;;;;;11.50;6.10;;;;;4.10;100820.00;;;;9744192;30;20203;-77
2022/12/07 21:53:22;;;;;;;11.00;5.70;;;;;4.10;100814.00;;;;9747956;30;20202;-77
2022/12/07 21:58:24;;;;;;;7.73;5.00;;;;;4.10;100825.00;;;;9736423;30;20576;-77
2022/12/07 22:03:26;;;;;;;10.13;6.10;;;;;4.10;100817.00;;;;9733167;30;20226;-76
2022/12/07 22:08:28;;;;;;;8.53;4.97;;;;;4.00;100823.00;;;;9741712;30;20308;-77
2022/12/07 22:15:04;;;;;;;6.60;3.67;;;;;3.90;100818.00;;;;9746293;30;20562;-77
2022/12/07 22:18:53;;;;;;;3.37;1.87;;;;;3.70;100821.00;;;;9770719;30;20209;-78
2022/12/07 22:23:54;;;;;;;3.80;2.30;;;;;3.60;100810.00;;;;9762935;30;20556;-78
2022/12/07 22:28:56;;;;;;;4.70;2.23;;;;;3.60;100801.00;;;;9761067;30;20226;-79
2022/12/07 22:33:59;;;;;;;4.23;2.17;;;;;3.60;100797.00;;;;9753956;30;20252;-79
2022/12/07 22:39:00;;;;;;;3.03;2.00;;;;;3.60;100794.00;;;;9754571;30;20205;-79
2022/12/07 22:44:05;;;;;;;2.80;2.03;;;;;3.60;100777.00;;;;9758513;30;20219;-79
2022/12/07 22:49:07;;;;;;;3.90;2.80;;;;;3.60;100772.00;;;;9744517;30;20195;-79
2022/12/07 22:54:14;;;;;;;5.23;3.13;;;;;3.60;100772.00;;;;9748999;30;20206;-79
2022/12/07 22:59:16;;;;;;;7.03;4.23;;;;;3.60;100766.00;;;;9764304;30;20297;-79
2022/12/07 23:04:18;;;;;;;7.93;4.50;;;;;3.60;100742.00;;;;9763154;30;20222;-79
2022/12/07 23:09:20;;;;;;;7.70;5.60;;;;;3.60;100743.00;;;;9747339;30;20220;-79
2022/12/07 23:14:26;;;;;;;11.37;6.37;;;;;3.60;100740.00;;;;9761426;30;20727;-78
2022/12/07 23:19:28;;;;;;;13.23;8.47;;;;;3.60;100750.00;;;;9772771;30;20703;-78
2022/12/07 23:24:30;;;;;;;19.17;8.23;;;;;3.60;100727.00;;;;9789550;30;20642;-79
2022/12/07 23:29:32;;;;;;;19.87;9.33;;;;;3.60;100718.00;;;;9777996;30;20260;-78
2022/12/07 23:34:34;;;;;;;16.70;9.93;;;;;3.60;100715.00;;;;9776699;30;20202;-78
2022/12/07 23:39:36;;;;;;;17.47;10.20;;;;;3.50;100717.00;;;;9776057;30;20206;-78
2022/12/07 23:44:38;;;;;;;19.73;11.53;;;;;3.60;100713.00;;;;9775259;30;20222;-78
2022/12/07 23:49:39;;;;;;;26.03;12.33;;;;;3.60;100707.00;;;;9775222;30;20222;-78
2022/12/07 23:54:41;;;;;;;29.17;14.23;;;;;3.70;100707.00;;;;9761437;30;20261;-78
2022/12/07 23:59:43;;;;;;;23.40;12.67;;;;;3.70;100701.00;;;;9761615;30;20206;-78
